Curry Rivel, United Kingdom
Current Conditions -  °F | °C
As of 7:50 PM on Monday 24 Nov 2014 (Local Time) from EGDY Reporting Station
Haze Haze  
Wind Chill:   Ceiling: Unl
Heat Index:   Visibility: 4mi
Dew Point:   Wind: 2mph
Humidity: 93%   Direction: 60°ENE
Pressure: 30.33"   Gusts: NA
Location:  51.02°N, 2.87°W
Report Text: EGDY 241950Z 06002KT 7000 BR FEW100 02/01 Q1027 WHT BECMG 4000 BR GRN
Loading
Personal Weather Stations






























Interactive Weather Map New forecast layout! Learn more

10-Day Weather Forecast

Advertisements
Track Severe Weather on mobile